sensor_id;sensor_type;location;lat;lon;timestamp;P1;durP1;ratioP1;P2;durP2;ratioP2
11287;SDS011;5700;50.996;7.044;2024-02-26T00:02:00;0.82;;;0.70;;
11287;SDS011;5700;50.996;7.044;2024-02-26T00:05:02;3.47;;;0.70;;
11287;SDS011;5700;50.996;7.044;2024-02-26T00:08:05;1.98;;;0.70;;
11287;SDS011;5700;50.996;7.044;2024-02-26T00:11:09;1.30;;;0.80;;
11287;SDS011;5700;50.996;7.044;2024-02-26T00:14:11;2.08;;;0.85;;
11287;SDS011;5700;50.996;7.044;2024-02-26T00:17:13;1.50;;;0.70;;
11287;SDS011;5700;50.996;7.044;2024-02-26T00:20:14;2.22;;;0.70;;
11287;SDS011;5700;50.996;7.044;2024-02-26T00:23:16;1.58;;;0.77;;
11287;SDS011;5700;50.996;7.044;2024-02-26T00:26:19;0.88;;;0.73;;
11287;SDS011;5700;50.996;7.044;2024-02-26T00:29:21;1.85;;;0.75;;
11287;SDS011;5700;50.996;7.044;2024-02-26T00:32:23;1.48;;;0.75;;
11287;SDS011;5700;50.996;7.044;2024-02-26T00:35:25;1.05;;;0.55;;
11287;SDS011;5700;50.996;7.044;2024-02-26T00:38:26;2.85;;;0.77;;
11287;SDS011;5700;50.996;7.044;2024-02-26T00:41:30;0.60;;;0.60;;
11287;SDS011;5700;50.996;7.044;2024-02-26T00:44:32;1.48;;;0.65;;
11287;SDS011;5700;50.996;7.044;2024-02-26T00:47:34;1.13;;;0.57;;
11287;SDS011;5700;50.996;7.044;2024-02-26T00:50:35;0.93;;;0.73;;
11287;SDS011;5700;50.996;7.044;2024-02-26T00:53:37;1.55;;;0.63;;
11287;SDS011;5700;50.996;7.044;2024-02-26T00:56:40;1.88;;;0.82;;
11287;SDS011;5700;50.996;7.044;2024-02-26T00:59:42;2.83;;;1.00;;
11287;SDS011;5700;50.996;7.044;2024-02-26T01:02:44;1.65;;;0.90;;
11287;SDS011;5700;50.996;7.044;2024-02-26T01:05:46;1.20;;;0.77;;
11287;SDS011;5700;50.996;7.044;2024-02-26T01:08:48;1.77;;;0.80;;
11287;SDS011;5700;50.996;7.044;2024-02-26T01:11:52;2.70;;;0.70;;
11287;SDS011;5700;50.996;7.044;2024-02-26T01:14:53;2.17;;;0.70;;
11287;SDS011;5700;50.996;7.044;2024-02-26T01:17:55;2.38;;;0.77;;
11287;SDS011;5700;50.996;7.044;2024-02-26T01:20:57;0.70;;;0.70;;
11287;SDS011;5700;50.996;7.044;2024-02-26T01:23:59;0.68;;;0.50;;
11287;SDS011;5700;50.996;7.044;2024-02-26T01:27:02;1.13;;;0.50;;
11287;SDS011;5700;50.996;7.044;2024-02-26T01:30:04;2.33;;;0.88;;
11287;SDS011;5700;50.996;7.044;2024-02-26T01:33:06;0.60;;;0.57;;
11287;SDS011;5700;50.996;7.044;2024-02-26T01:36:08;1.58;;;0.57;;
11287;SDS011;5700;50.996;7.044;2024-02-26T01:39:10;1.75;;;0.70;;
11287;SDS011;5700;50.996;7.044;2024-02-26T01:42:14;0.90;;;0.60;;
11287;SDS011;5700;50.996;7.044;2024-02-26T01:45:16;1.55;;;0.88;;
11287;SDS011;5700;50.996;7.044;2024-02-26T01:48:21;1.48;;;0.75;;
11287;SDS011;5700;50.996;7.044;2024-02-26T01:51:23;1.35;;;0.40;;
11287;SDS011;5700;50.996;7.044;2024-02-26T01:54:25;1.33;;;0.60;;
11287;SDS011;5700;50.996;7.044;2024-02-26T01:57:28;0.75;;;0.60;;
11287;SDS011;5700;50.996;7.044;2024-02-26T02:00:30;0.90;;;0.70;;
11287;SDS011;5700;50.996;7.044;2024-02-26T02:03:32;2.55;;;0.70;;
11287;SDS011;5700;50.996;7.044;2024-02-26T02:06:34;1.42;;;0.63;;
11287;SDS011;5700;50.996;7.044;2024-02-26T02:09:36;1.17;;;0.60;;
11287;SDS011;5700;50.996;7.044;2024-02-26T02:12:39;0.80;;;0.73;;
11287;SDS011;5700;50.996;7.044;2024-02-26T02:15:41;1.85;;;0.80;;
11287;SDS011;5700;50.996;7.044;2024-02-26T02:18:42;0.90;;;0.50;;
11287;SDS011;5700;50.996;7.044;2024-02-26T02:21:45;2.15;;;0.80;;
11287;SDS011;5700;50.996;7.044;2024-02-26T02:24:48;1.35;;;0.70;;
11287;SDS011;5700;50.996;7.044;2024-02-26T02:27:50;0.95;;;0.70;;
11287;SDS011;5700;50.996;7.044;2024-02-26T02:30:52;1.95;;;0.80;;
11287;SDS011;5700;50.996;7.044;2024-02-26T02:33:54;1.92;;;0.70;;
11287;SDS011;5700;50.996;7.044;2024-02-26T02:36:57;0.70;;;0.60;;
11287;SDS011;5700;50.996;7.044;2024-02-26T02:39:59;1.05;;;0.70;;
11287;SDS011;5700;50.996;7.044;2024-02-26T02:43:00;5.30;;;0.82;;
11287;SDS011;5700;50.996;7.044;2024-02-26T02:46:02;1.02;;;0.80;;
11287;SDS011;5700;50.996;7.044;2024-02-26T02:49:04;1.95;;;0.80;;
11287;SDS011;5700;50.996;7.044;2024-02-26T02:52:11;1.70;;;0.70;;
11287;SDS011;5700;50.996;7.044;2024-02-26T02:55:12;1.60;;;0.68;;
11287;SDS011;5700;50.996;7.044;2024-02-26T02:58:14;0.90;;;0.57;;
11287;SDS011;5700;50.996;7.044;2024-02-26T03:01:15;0.50;;;0.50;;
11287;SDS011;5700;50.996;7.044;2024-02-26T03:04:17;0.90;;;0.60;;
11287;SDS011;5700;50.996;7.044;2024-02-26T03:07:20;0.95;;;0.50;;
11287;SDS011;5700;50.996;7.044;2024-02-26T03:10:22;2.15;;;0.90;;
11287;SDS011;5700;50.996;7.044;2024-02-26T03:13:24;0.80;;;0.75;;
11287;SDS011;5700;50.996;7.044;2024-02-26T03:16:25;1.30;;;0.70;;
11287;SDS011;5700;50.996;7.044;2024-02-26T03:19:28;1.02;;;0.68;;
11287;SDS011;5700;50.996;7.044;2024-02-26T03:22:31;1.30;;;0.80;;
11287;SDS011;5700;50.996;7.044;2024-02-26T03:25:32;1.17;;;0.50;;
11287;SDS011;5700;50.996;7.044;2024-02-26T03:28:34;0.85;;;0.60;;
11287;SDS011;5700;50.996;7.044;2024-02-26T03:31:36;1.17;;;0.65;;
11287;SDS011;5700;50.996;7.044;2024-02-26T03:34:37;0.95;;;0.57;;
11287;SDS011;5700;50.996;7.044;2024-02-26T03:37:42;0.57;;;0.57;;
11287;SDS011;5700;50.996;7.044;2024-02-26T03:40:43;1.35;;;0.70;;
11287;SDS011;5700;50.996;7.044;2024-02-26T03:43:45;1.55;;;0.70;;
11287;SDS011;5700;50.996;7.044;2024-02-26T03:46:47;0.73;;;0.60;;
11287;SDS011;5700;50.996;7.044;2024-02-26T03:49:49;1.08;;;0.68;;
11287;SDS011;5700;50.996;7.044;2024-02-26T03:52:52;1.38;;;0.80;;
11287;SDS011;5700;50.996;7.044;2024-02-26T03:55:54;1.42;;;0.65;;
11287;SDS011;5700;50.996;7.044;2024-02-26T03:58:56;0.82;;;0.70;;
11287;SDS011;5700;50.996;7.044;2024-02-26T04:01:59;0.98;;;0.60;;
11287;SDS011;5700;50.996;7.044;2024-02-26T04:05:02;1.52;;;0.77;;
11287;SDS011;5700;50.996;7.044;2024-02-26T04:08:06;0.75;;;0.65;;
11287;SDS011;5700;50.996;7.044;2024-02-26T04:11:08;1.33;;;0.80;;
11287;SDS011;5700;50.996;7.044;2024-02-26T04:14:10;1.63;;;0.60;;
11287;SDS011;5700;50.996;7.044;2024-02-26T04:17:12;1.75;;;0.90;;
11287;SDS011;5700;50.996;7.044;2024-02-26T04:20:14;1.15;;;0.80;;
11287;SDS011;5700;50.996;7.044;2024-02-26T04:23:18;1.80;;;0.80;;
11287;SDS011;5700;50.996;7.044;2024-02-26T04:26:20;1.92;;;0.90;;
11287;SDS011;5700;50.996;7.044;2024-02-26T04:29:22;1.30;;;0.95;;
11287;SDS011;5700;50.996;7.044;2024-02-26T04:32:24;1.45;;;0.80;;
11287;SDS011;5700;50.996;7.044;2024-02-26T04:35:26;2.45;;;1.00;;
11287;SDS011;5700;50.996;7.044;2024-02-26T04:38:29;5.65;;;0.80;;
11287;SDS011;5700;50.996;7.044;2024-02-26T04:41:31;3.00;;;0.95;;
11287;SDS011;5700;50.996;7.044;2024-02-26T04:44:32;1.90;;;0.90;;
11287;SDS011;5700;50.996;7.044;2024-02-26T04:47:34;0.82;;;0.65;;
11287;SDS011;5700;50.996;7.044;2024-02-26T04:50:36;1.88;;;0.88;;
11287;SDS011;5700;50.996;7.044;2024-02-26T04:53:39;1.52;;;0.80;;
11287;SDS011;5700;50.996;7.044;2024-02-26T04:56:41;0.82;;;0.70;;
11287;SDS011;5700;50.996;7.044;2024-02-26T04:59:43;1.48;;;0.90;;
11287;SDS011;5700;50.996;7.044;2024-02-26T05:02:45;1.50;;;0.95;;
11287;SDS011;5700;50.996;7.044;2024-02-26T05:05:47;1.52;;;0.80;;
11287;SDS011;5700;50.996;7.044;2024-02-26T05:08:50;2.00;;;1.20;;
11287;SDS011;5700;50.996;7.044;2024-02-26T05:11:52;1.42;;;0.98;;
11287;SDS011;5700;50.996;7.044;2024-02-26T05:14:53;2.25;;;0.90;;
11287;SDS011;5700;50.996;7.044;2024-02-26T05:17:55;1.65;;;0.85;;
11287;SDS011;5700;50.996;7.044;2024-02-26T05:20:57;2.85;;;1.00;;
11287;SDS011;5700;50.996;7.044;2024-02-26T05:24:00;1.13;;;0.90;;
11287;SDS011;5700;50.996;7.044;2024-02-26T05:27:01;1.20;;;0.90;;
11287;SDS011;5700;50.996;7.044;2024-02-26T05:30:04;4.63;;;0.98;;
11287;SDS011;5700;50.996;7.044;2024-02-26T05:33:06;1.75;;;1.10;;
11287;SDS011;5700;50.996;7.044;2024-02-26T05:36:08;1.15;;;0.70;;
11287;SDS011;5700;50.996;7.044;2024-02-26T05:39:11;1.30;;;1.08;;
11287;SDS011;5700;50.996;7.044;2024-02-26T05:42:12;2.20;;;1.05;;
11287;SDS011;5700;50.996;7.044;2024-02-26T05:45:14;2.63;;;1.08;;
11287;SDS011;5700;50.996;7.044;2024-02-26T05:48:16;1.30;;;1.00;;
11287;SDS011;5700;50.996;7.044;2024-02-26T05:51:19;3.72;;;0.90;;
11287;SDS011;5700;50.996;7.044;2024-02-26T05:54:22;1.67;;;1.00;;
11287;SDS011;5700;50.996;7.044;2024-02-26T05:57:23;3.58;;;1.20;;
11287;SDS011;5700;50.996;7.044;2024-02-26T06:00:25;2.25;;;1.10;;
11287;SDS011;5700;50.996;7.044;2024-02-26T06:03:27;2.08;;;1.27;;
11287;SDS011;5700;50.996;7.044;2024-02-26T06:06:29;1.27;;;0.93;;
11287;SDS011;5700;50.996;7.044;2024-02-26T06:09:32;1.92;;;1.08;;
11287;SDS011;5700;50.996;7.044;2024-02-26T06:12:34;1.90;;;1.33;;
11287;SDS011;5700;50.996;7.044;2024-02-26T06:15:36;1.70;;;1.00;;
11287;SDS011;5700;50.996;7.044;2024-02-26T06:18:38;1.77;;;1.00;;
11287;SDS011;5700;50.996;7.044;2024-02-26T06:21:39;3.17;;;1.45;;
11287;SDS011;5700;50.996;7.044;2024-02-26T06:24:43;1.67;;;1.38;;
11287;SDS011;5700;50.996;7.044;2024-02-26T06:27:44;3.03;;;1.50;;
11287;SDS011;5700;50.996;7.044;2024-02-26T06:30:46;2.40;;;1.40;;
11287;SDS011;5700;50.996;7.044;2024-02-26T06:33:48;3.63;;;1.55;;
11287;SDS011;5700;50.996;7.044;2024-02-26T06:36:49;3.20;;;1.60;;
11287;SDS011;5700;50.996;7.044;2024-02-26T06:39:53;5.63;;;1.85;;
11287;SDS011;5700;50.996;7.044;2024-02-26T06:42:54;3.00;;;1.58;;
11287;SDS011;5700;50.996;7.044;2024-02-26T06:45:57;2.13;;;1.48;;
11287;SDS011;5700;50.996;7.044;2024-02-26T06:48:59;2.45;;;1.50;;
11287;SDS011;5700;50.996;7.044;2024-02-26T06:52:01;3.47;;;1.55;;
11287;SDS011;5700;50.996;7.044;2024-02-26T06:55:04;2.00;;;1.30;;
11287;SDS011;5700;50.996;7.044;2024-02-26T06:58:08;2.00;;;1.40;;
11287;SDS011;5700;50.996;7.044;2024-02-26T07:01:10;3.95;;;1.23;;
11287;SDS011;5700;50.996;7.044;2024-02-26T07:04:16;4.55;;;1.80;;
11287;SDS011;5700;50.996;7.044;2024-02-26T07:07:18;2.92;;;1.40;;
11287;SDS011;5700;50.996;7.044;2024-02-26T07:10:23;2.00;;;1.05;;
11287;SDS011;5700;50.996;7.044;2024-02-26T07:13:25;1.85;;;1.23;;
11287;SDS011;5700;50.996;7.044;2024-02-26T07:16:27;2.25;;;1.27;;
11287;SDS011;5700;50.996;7.044;2024-02-26T07:19:29;3.33;;;1.48;;
11287;SDS011;5700;50.996;7.044;2024-02-26T07:22:31;2.20;;;1.27;;
11287;SDS011;5700;50.996;7.044;2024-02-26T07:25:34;2.40;;;1.45;;
11287;SDS011;5700;50.996;7.044;2024-02-26T07:28:36;2.17;;;1.27;;
11287;SDS011;5700;50.996;7.044;2024-02-26T07:31:38;2.65;;;1.52;;
11287;SDS011;5700;50.996;7.044;2024-02-26T07:34:39;3.15;;;1.30;;
11287;SDS011;5700;50.996;7.044;2024-02-26T07:37:41;3.25;;;1.70;;
11287;SDS011;5700;50.996;7.044;2024-02-26T07:40:45;2.22;;;1.67;;
11287;SDS011;5700;50.996;7.044;2024-02-26T07:43:46;2.45;;;1.42;;
11287;SDS011;5700;50.996;7.044;2024-02-26T07:46:48;2.58;;;1.65;;
11287;SDS011;5700;50.996;7.044;2024-02-26T07:49:50;2.42;;;1.33;;
11287;SDS011;5700;50.996;7.044;2024-02-26T07:52:52;4.63;;;1.75;;
11287;SDS011;5700;50.996;7.044;2024-02-26T07:55:55;4.57;;;1.35;;
11287;SDS011;5700;50.996;7.044;2024-02-26T07:58:57;2.97;;;1.45;;
11287;SDS011;5700;50.996;7.044;2024-02-26T08:01:58;2.67;;;1.20;;
11287;SDS011;5700;50.996;7.044;2024-02-26T08:05:03;2.95;;;1.48;;
11287;SDS011;5700;50.996;7.044;2024-02-26T08:08:05;2.28;;;1.10;;
11287;SDS011;5700;50.996;7.044;2024-02-26T08:11:09;3.65;;;1.63;;
11287;SDS011;5700;50.996;7.044;2024-02-26T08:14:11;2.38;;;1.42;;
11287;SDS011;5700;50.996;7.044;2024-02-26T08:17:13;2.95;;;1.60;;
11287;SDS011;5700;50.996;7.044;2024-02-26T08:20:14;2.17;;;1.52;;
11287;SDS011;5700;50.996;7.044;2024-02-26T08:23:17;2.30;;;1.60;;
11287;SDS011;5700;50.996;7.044;2024-02-26T08:26:20;3.40;;;1.48;;
11287;SDS011;5700;50.996;7.044;2024-02-26T08:29:22;4.00;;;1.50;;
11287;SDS011;5700;50.996;7.044;2024-02-26T08:32:24;5.00;;;1.75;;
11287;SDS011;5700;50.996;7.044;2024-02-26T08:35:26;3.42;;;1.50;;
11287;SDS011;5700;50.996;7.044;2024-02-26T08:38:28;2.75;;;1.40;;
11287;SDS011;5700;50.996;7.044;2024-02-26T08:41:30;2.03;;;1.42;;
11287;SDS011;5700;50.996;7.044;2024-02-26T08:44:32;4.00;;;1.33;;
11287;SDS011;5700;50.996;7.044;2024-02-26T08:47:33;5.47;;;1.80;;
11287;SDS011;5700;50.996;7.044;2024-02-26T08:50:35;4.05;;;1.40;;
11287;SDS011;5700;50.996;7.044;2024-02-26T08:53:36;2.15;;;1.23;;
11287;SDS011;5700;50.996;7.044;2024-02-26T08:56:40;4.40;;;1.70;;
11287;SDS011;5700;50.996;7.044;2024-02-26T08:59:41;2.65;;;1.40;;
11287;SDS011;5700;50.996;7.044;2024-02-26T09:02:43;2.35;;;1.40;;
11287;SDS011;5700;50.996;7.044;2024-02-26T09:05:44;4.50;;;1.30;;
11287;SDS011;5700;50.996;7.044;2024-02-26T09:08:46;2.65;;;1.75;;
11287;SDS011;5700;50.996;7.044;2024-02-26T09:11:49;5.72;;;1.73;;
11287;SDS011;5700;50.996;7.044;2024-02-26T09:14:52;2.45;;;1.40;;
11287;SDS011;5700;50.996;7.044;2024-02-26T09:17:54;4.03;;;1.70;;
11287;SDS011;5700;50.996;7.044;2024-02-26T09:20:55;4.80;;;1.75;;
11287;SDS011;5700;50.996;7.044;2024-02-26T09:23:57;1.92;;;1.33;;
11287;SDS011;5700;50.996;7.044;2024-02-26T09:27:01;3.58;;;1.77;;
11287;SDS011;5700;50.996;7.044;2024-02-26T09:30:03;3.42;;;1.70;;
11287;SDS011;5700;50.996;7.044;2024-02-26T09:33:05;3.72;;;1.88;;
11287;SDS011;5700;50.996;7.044;2024-02-26T09:36:07;2.45;;;1.60;;
11287;SDS011;5700;50.996;7.044;2024-02-26T09:39:10;4.47;;;1.77;;
11287;SDS011;5700;50.996;7.044;2024-02-26T09:42:16;5.03;;;1.95;;
11287;SDS011;5700;50.996;7.044;2024-02-26T09:45:21;4.20;;;1.83;;
11287;SDS011;5700;50.996;7.044;2024-02-26T09:48:23;4.28;;;2.03;;
11287;SDS011;5700;50.996;7.044;2024-02-26T09:51:24;2.85;;;1.63;;
11287;SDS011;5700;50.996;7.044;2024-02-26T09:54:27;3.53;;;1.45;;
11287;SDS011;5700;50.996;7.044;2024-02-26T09:57:33;2.78;;;1.73;;
11287;SDS011;5700;50.996;7.044;2024-02-26T10:00:36;3.58;;;1.88;;
11287;SDS011;5700;50.996;7.044;2024-02-26T10:03:39;3.13;;;1.70;;
11287;SDS011;5700;50.996;7.044;2024-02-26T10:06:44;4.57;;;1.85;;
11287;SDS011;5700;50.996;7.044;2024-02-26T10:09:46;2.90;;;1.55;;
11287;SDS011;5700;50.996;7.044;2024-02-26T10:12:49;4.40;;;1.60;;
11287;SDS011;5700;50.996;7.044;2024-02-26T10:15:50;7.63;;;2.22;;
11287;SDS011;5700;50.996;7.044;2024-02-26T10:18:52;3.58;;;1.95;;
11287;SDS011;5700;50.996;7.044;2024-02-26T10:21:56;4.30;;;2.17;;
11287;SDS011;5700;50.996;7.044;2024-02-26T10:24:57;3.30;;;1.90;;
11287;SDS011;5700;50.996;7.044;2024-02-26T10:28:01;5.93;;;1.80;;
11287;SDS011;5700;50.996;7.044;2024-02-26T10:31:03;3.47;;;1.95;;
11287;SDS011;5700;50.996;7.044;2024-02-26T10:34:05;3.78;;;1.90;;
11287;SDS011;5700;50.996;7.044;2024-02-26T10:37:06;3.20;;;1.92;;
11287;SDS011;5700;50.996;7.044;2024-02-26T10:40:09;3.25;;;2.13;;
11287;SDS011;5700;50.996;7.044;2024-02-26T10:43:13;3.92;;;2.05;;
11287;SDS011;5700;50.996;7.044;2024-02-26T10:46:16;3.95;;;2.13;;
11287;SDS011;5700;50.996;7.044;2024-02-26T10:49:17;5.43;;;2.50;;
11287;SDS011;5700;50.996;7.044;2024-02-26T10:52:19;3.88;;;2.10;;
11287;SDS011;5700;50.996;7.044;2024-02-26T10:55:22;4.25;;;2.22;;
11287;SDS011;5700;50.996;7.044;2024-02-26T10:58:25;3.33;;;1.75;;
11287;SDS011;5700;50.996;7.044;2024-02-26T11:01:27;6.10;;;2.40;;
11287;SDS011;5700;50.996;7.044;2024-02-26T11:04:29;5.20;;;1.90;;
11287;SDS011;5700;50.996;7.044;2024-02-26T11:07:31;2.53;;;1.35;;
11287;SDS011;5700;50.996;7.044;2024-02-26T11:10:33;4.18;;;2.13;;
11287;SDS011;5700;50.996;7.044;2024-02-26T11:13:37;3.22;;;1.85;;
11287;SDS011;5700;50.996;7.044;2024-02-26T11:16:39;3.35;;;1.70;;
11287;SDS011;5700;50.996;7.044;2024-02-26T11:19:42;6.40;;;1.67;;
11287;SDS011;5700;50.996;7.044;2024-02-26T11:22:44;3.95;;;2.20;;
11287;SDS011;5700;50.996;7.044;2024-02-26T11:25:46;3.67;;;1.50;;
11287;SDS011;5700;50.996;7.044;2024-02-26T11:28:49;4.20;;;1.67;;
11287;SDS011;5700;50.996;7.044;2024-02-26T11:31:52;3.45;;;1.80;;
11287;SDS011;5700;50.996;7.044;2024-02-26T11:34:54;3.80;;;1.80;;
11287;SDS011;5700;50.996;7.044;2024-02-26T11:37:56;3.17;;;1.92;;
11287;SDS011;5700;50.996;7.044;2024-02-26T11:40:58;3.80;;;1.92;;
11287;SDS011;5700;50.996;7.044;2024-02-26T11:44:02;3.05;;;1.60;;
11287;SDS011;5700;50.996;7.044;2024-02-26T11:47:12;3.15;;;1.90;;
11287;SDS011;5700;50.996;7.044;2024-02-26T11:53:35;4.43;;;1.50;;
11287;SDS011;5700;50.996;7.044;2024-02-26T11:56:48;3.70;;;1.90;;
11287;SDS011;5700;50.996;7.044;2024-02-26T11:59:53;3.85;;;1.75;;
11287;SDS011;5700;50.996;7.044;2024-02-26T12:02:55;2.92;;;1.90;;
11287;SDS011;5700;50.996;7.044;2024-02-26T12:06:01;3.85;;;1.67;;
11287;SDS011;5700;50.996;7.044;2024-02-26T12:09:02;5.90;;;2.00;;
11287;SDS011;5700;50.996;7.044;2024-02-26T12:12:04;3.40;;;2.03;;
11287;SDS011;5700;50.996;7.044;2024-02-26T12:15:09;3.85;;;2.08;;
11287;SDS011;5700;50.996;7.044;2024-02-26T12:18:15;2.95;;;1.90;;
11287;SDS011;5700;50.996;7.044;2024-02-26T12:21:18;2.75;;;1.73;;
11287;SDS011;5700;50.996;7.044;2024-02-26T12:24:20;3.78;;;1.70;;
11287;SDS011;5700;50.996;7.044;2024-02-26T12:27:22;7.95;;;2.33;;
11287;SDS011;5700;50.996;7.044;2024-02-26T12:30:25;4.72;;;2.40;;
11287;SDS011;5700;50.996;7.044;2024-02-26T12:33:29;3.22;;;1.90;;
11287;SDS011;5700;50.996;7.044;2024-02-26T12:36:31;4.15;;;2.13;;
11287;SDS011;5700;50.996;7.044;2024-02-26T12:39:34;4.65;;;1.70;;
11287;SDS011;5700;50.996;7.044;2024-02-26T12:42:36;5.75;;;2.20;;
11287;SDS011;5700;50.996;7.044;2024-02-26T12:45:42;4.45;;;2.03;;
11287;SDS011;5700;50.996;7.044;2024-02-26T12:48:46;3.25;;;1.95;;
11287;SDS011;5700;50.996;7.044;2024-02-26T12:51:48;3.22;;;1.83;;
11287;SDS011;5700;50.996;7.044;2024-02-26T12:54:49;3.83;;;2.20;;
11287;SDS011;5700;50.996;7.044;2024-02-26T12:57:51;4.05;;;1.98;;
11287;SDS011;5700;50.996;7.044;2024-02-26T13:00:54;6.55;;;2.58;;
11287;SDS011;5700;50.996;7.044;2024-02-26T13:03:56;4.82;;;2.50;;
11287;SDS011;5700;50.996;7.044;2024-02-26T13:07:02;4.93;;;2.25;;
11287;SDS011;5700;50.996;7.044;2024-02-26T13:10:05;4.50;;;2.50;;
11287;SDS011;5700;50.996;7.044;2024-02-26T13:13:07;4.38;;;2.38;;
11287;SDS011;5700;50.996;7.044;2024-02-26T13:16:13;4.30;;;2.22;;
11287;SDS011;5700;50.996;7.044;2024-02-26T13:19:15;5.78;;;2.75;;
11287;SDS011;5700;50.996;7.044;2024-02-26T13:22:17;5.03;;;2.13;;
11287;SDS011;5700;50.996;7.044;2024-02-26T13:25:22;4.75;;;2.42;;
11287;SDS011;5700;50.996;7.044;2024-02-26T13:28:24;5.53;;;2.92;;
11287;SDS011;5700;50.996;7.044;2024-02-26T13:31:29;6.00;;;2.65;;
11287;SDS011;5700;50.996;7.044;2024-02-26T13:34:30;5.68;;;2.42;;
11287;SDS011;5700;50.996;7.044;2024-02-26T13:37:33;5.10;;;2.97;;
11287;SDS011;5700;50.996;7.044;2024-02-26T13:40:34;6.57;;;2.83;;
11287;SDS011;5700;50.996;7.044;2024-02-26T13:43:36;4.60;;;2.38;;
11287;SDS011;5700;50.996;7.044;2024-02-26T13:46:39;7.85;;;2.65;;
11287;SDS011;5700;50.996;7.044;2024-02-26T13:49:41;4.88;;;2.60;;
11287;SDS011;5700;50.996;7.044;2024-02-26T13:52:42;4.90;;;2.30;;
11287;SDS011;5700;50.996;7.044;2024-02-26T13:55:44;4.18;;;2.55;;
11287;SDS011;5700;50.996;7.044;2024-02-26T13:58:46;5.07;;;2.70;;
11287;SDS011;5700;50.996;7.044;2024-02-26T14:01:49;5.95;;;2.88;;
11287;SDS011;5700;50.996;7.044;2024-02-26T14:04:55;5.45;;;2.90;;
11287;SDS011;5700;50.996;7.044;2024-02-26T14:07:57;5.70;;;2.75;;
11287;SDS011;5700;50.996;7.044;2024-02-26T14:10:58;6.28;;;3.42;;
11287;SDS011;5700;50.996;7.044;2024-02-26T14:14:01;6.75;;;3.97;;
11287;SDS011;5700;50.996;7.044;2024-02-26T14:17:03;6.07;;;3.33;;
11287;SDS011;5700;50.996;7.044;2024-02-26T14:20:06;5.80;;;3.13;;
11287;SDS011;5700;50.996;7.044;2024-02-26T14:23:09;6.55;;;3.45;;
11287;SDS011;5700;50.996;7.044;2024-02-26T14:26:10;8.63;;;4.25;;
11287;SDS011;5700;50.996;7.044;2024-02-26T14:29:12;8.85;;;4.55;;
11287;SDS011;5700;50.996;7.044;2024-02-26T14:32:17;9.85;;;5.20;;
11287;SDS011;5700;50.996;7.044;2024-02-26T14:35:18;10.70;;;5.07;;
11287;SDS011;5700;50.996;7.044;2024-02-26T14:38:20;11.23;;;5.00;;
11287;SDS011;5700;50.996;7.044;2024-02-26T14:41:23;8.85;;;4.63;;
11287;SDS011;5700;50.996;7.044;2024-02-26T14:44:25;7.72;;;3.88;;
11287;SDS011;5700;50.996;7.044;2024-02-26T14:47:29;8.63;;;5.03;;
11287;SDS011;5700;50.996;7.044;2024-02-26T14:50:30;10.13;;;4.72;;
11287;SDS011;5700;50.996;7.044;2024-02-26T14:53:32;10.30;;;5.05;;
11287;SDS011;5700;50.996;7.044;2024-02-26T14:56:34;10.60;;;5.15;;
11287;SDS011;5700;50.996;7.044;2024-02-26T14:59:35;9.40;;;4.68;;
11287;SDS011;5700;50.996;7.044;2024-02-26T15:02:39;10.20;;;5.50;;
11287;SDS011;5700;50.996;7.044;2024-02-26T15:05:41;10.93;;;5.13;;
11287;SDS011;5700;50.996;7.044;2024-02-26T15:08:43;9.55;;;5.10;;
11287;SDS011;5700;50.996;7.044;2024-02-26T15:11:44;13.30;;;5.90;;
11287;SDS011;5700;50.996;7.044;2024-02-26T15:14:46;12.25;;;5.57;;
11287;SDS011;5700;50.996;7.044;2024-02-26T15:17:49;10.18;;;5.68;;
11287;SDS011;5700;50.996;7.044;2024-02-26T15:20:51;12.50;;;5.82;;
11287;SDS011;5700;50.996;7.044;2024-02-26T15:23:53;13.32;;;5.63;;
11287;SDS011;5700;50.996;7.044;2024-02-26T15:26:54;12.50;;;6.03;;
11287;SDS011;5700;50.996;7.044;2024-02-26T15:29:57;9.63;;;5.45;;
11287;SDS011;5700;50.996;7.044;2024-02-26T15:33:01;9.23;;;5.20;;
11287;SDS011;5700;50.996;7.044;2024-02-26T15:36:02;10.70;;;5.57;;
11287;SDS011;5700;50.996;7.044;2024-02-26T15:39:04;15.13;;;6.70;;
11287;SDS011;5700;50.996;7.044;2024-02-26T15:42:07;11.63;;;6.20;;
11287;SDS011;5700;50.996;7.044;2024-02-26T15:45:09;10.75;;;5.40;;
11287;SDS011;5700;50.996;7.044;2024-02-26T15:48:13;10.15;;;5.60;;
11287;SDS011;5700;50.996;7.044;2024-02-26T15:51:18;8.93;;;5.03;;
11287;SDS011;5700;50.996;7.044;2024-02-26T15:54:20;7.97;;;4.68;;
11287;SDS011;5700;50.996;7.044;2024-02-26T15:57:22;9.95;;;5.13;;
11287;SDS011;5700;50.996;7.044;2024-02-26T16:00:23;9.32;;;5.15;;
11287;SDS011;5700;50.996;7.044;2024-02-26T16:03:27;9.43;;;5.18;;
11287;SDS011;5700;50.996;7.044;2024-02-26T16:06:29;8.55;;;5.13;;
11287;SDS011;5700;50.996;7.044;2024-02-26T16:09:34;8.73;;;4.72;;
11287;SDS011;5700;50.996;7.044;2024-02-26T16:12:36;8.85;;;4.95;;
11287;SDS011;5700;50.996;7.044;2024-02-26T16:15:41;11.05;;;5.40;;
11287;SDS011;5700;50.996;7.044;2024-02-26T16:18:47;10.10;;;5.38;;
11287;SDS011;5700;50.996;7.044;2024-02-26T16:21:49;9.55;;;5.43;;
11287;SDS011;5700;50.996;7.044;2024-02-26T16:24:50;11.57;;;6.10;;
11287;SDS011;5700;50.996;7.044;2024-02-26T16:27:52;10.50;;;5.70;;
11287;SDS011;5700;50.996;7.044;2024-02-26T16:30:54;9.70;;;5.13;;
11287;SDS011;5700;50.996;7.044;2024-02-26T16:33:57;12.15;;;5.55;;
11287;SDS011;5700;50.996;7.044;2024-02-26T16:36:59;10.75;;;6.35;;
11287;SDS011;5700;50.996;7.044;2024-02-26T16:40:03;11.43;;;5.57;;
11287;SDS011;5700;50.996;7.044;2024-02-26T16:43:08;9.80;;;5.65;;
11287;SDS011;5700;50.996;7.044;2024-02-26T16:46:10;7.82;;;4.97;;
11287;SDS011;5700;50.996;7.044;2024-02-26T16:49:16;10.75;;;6.28;;
11287;SDS011;5700;50.996;7.044;2024-02-26T16:52:19;8.82;;;5.20;;
11287;SDS011;5700;50.996;7.044;2024-02-26T16:55:20;8.90;;;5.72;;
11287;SDS011;5700;50.996;7.044;2024-02-26T16:58:24;12.20;;;6.35;;
11287;SDS011;5700;50.996;7.044;2024-02-26T17:01:25;9.13;;;5.43;;
11287;SDS011;5700;50.996;7.044;2024-02-26T17:04:29;11.73;;;6.55;;
11287;SDS011;5700;50.996;7.044;2024-02-26T17:07:31;10.88;;;5.95;;
11287;SDS011;5700;50.996;7.044;2024-02-26T17:10:33;13.40;;;7.18;;
11287;SDS011;5700;50.996;7.044;2024-02-26T17:13:35;14.00;;;7.20;;
11287;SDS011;5700;50.996;7.044;2024-02-26T17:16:37;11.38;;;6.20;;
11287;SDS011;5700;50.996;7.044;2024-02-26T17:19:40;13.95;;;7.32;;
11287;SDS011;5700;50.996;7.044;2024-02-26T17:22:42;15.38;;;7.25;;
11287;SDS011;5700;50.996;7.044;2024-02-26T17:25:44;14.35;;;8.07;;
11287;SDS011;5700;50.996;7.044;2024-02-26T17:28:46;13.02;;;7.55;;
11287;SDS011;5700;50.996;7.044;2024-02-26T17:31:48;16.92;;;8.82;;
11287;SDS011;5700;50.996;7.044;2024-02-26T17:34:53;12.55;;;6.97;;
11287;SDS011;5700;50.996;7.044;2024-02-26T17:37:56;13.13;;;7.32;;
11287;SDS011;5700;50.996;7.044;2024-02-26T17:41:00;15.27;;;6.88;;
11287;SDS011;5700;50.996;7.044;2024-02-26T17:44:02;14.35;;;7.93;;
11287;SDS011;5700;50.996;7.044;2024-02-26T17:47:04;13.68;;;7.30;;
11287;SDS011;5700;50.996;7.044;2024-02-26T17:50:07;12.00;;;5.95;;
11287;SDS011;5700;50.996;7.044;2024-02-26T17:53:09;10.32;;;5.72;;
11287;SDS011;5700;50.996;7.044;2024-02-26T17:56:13;11.27;;;5.72;;
11287;SDS011;5700;50.996;7.044;2024-02-26T17:59:16;14.85;;;5.97;;
11287;SDS011;5700;50.996;7.044;2024-02-26T18:02:18;14.82;;;6.43;;
11287;SDS011;5700;50.996;7.044;2024-02-26T18:05:21;8.90;;;5.43;;
11287;SDS011;5700;50.996;7.044;2024-02-26T18:08:23;9.15;;;5.20;;
11287;SDS011;5700;50.996;7.044;2024-02-26T18:11:25;10.82;;;5.80;;
11287;SDS011;5700;50.996;7.044;2024-02-26T18:14:26;8.55;;;4.88;;
11287;SDS011;5700;50.996;7.044;2024-02-26T18:17:28;11.75;;;6.45;;
11287;SDS011;5700;50.996;7.044;2024-02-26T18:20:32;13.10;;;6.38;;
11287;SDS011;5700;50.996;7.044;2024-02-26T18:23:33;12.90;;;6.68;;
11287;SDS011;5700;50.996;7.044;2024-02-26T18:26:35;10.32;;;5.53;;
11287;SDS011;5700;50.996;7.044;2024-02-26T18:29:37;11.13;;;6.20;;
11287;SDS011;5700;50.996;7.044;2024-02-26T18:32:38;9.05;;;5.07;;
11287;SDS011;5700;50.996;7.044;2024-02-26T18:35:42;8.85;;;5.22;;
11287;SDS011;5700;50.996;7.044;2024-02-26T18:38:44;8.95;;;5.22;;